Time;durP1;ratioP1;P1;durP2;ratioP2;P2;SDS_P1;SDS_P2;PMS_P1;PMS_P2;Temp;Humidity;BMP_temperature;BMP_pressure;BME280_temperature;BME280_humidity;BME280_pressure;Samples;Min_cycle;Max_cycle;Signal;HPM_P1;HPM_P2
2022/09/26 00:01:30;;;;;;;0.10;0.10;;;;;;;15.56;63.12;100985.59;5079320;28;20510;-79
2022/09/26 00:03:59;;;;;;;0.10;0.10;;;;;;;15.58;63.24;100973.94;5073489;28;20039;-79
2022/09/26 00:06:26;;;;;;;0.10;0.10;;;;;;;15.53;63.04;100968.75;5086727;28;20024;-80
2022/09/26 00:08:53;;;;;;;0.08;0.08;;;;;;;15.51;62.87;100965.31;5090253;28;20125;-79
2022/09/26 00:11:23;;;;;;;0.10;0.10;;;;;;;15.57;62.57;100963.31;5093021;28;20039;-79
2022/09/26 00:13:53;;;;;;;0.10;0.10;;;;;;;15.58;62.65;100959.72;5095067;28;20403;-80
2022/09/26 00:16:20;;;;;;;0.10;0.10;;;;;;;15.55;63.00;100958.00;5087075;28;20062;-82
2022/09/26 00:18:49;;;;;;;0.10;0.10;;;;;;;15.52;62.83;100952.81;5083605;28;20031;-80
2022/09/26 00:21:17;;;;;;;0.10;0.10;;;;;;;15.48;62.94;100945.84;5086316;28;20078;-79
2022/09/26 00:23:43;;;;;;;0.00;0.00;;;;;;;15.48;62.94;100938.69;5081706;28;20035;-80
2022/09/26 00:26:10;;;;;;;0.00;0.00;;;;;;;15.51;63.09;100935.94;5083500;28;20032;-80
2022/09/26 00:28:36;;;;;;;0.00;0.00;;;;;;;15.51;62.96;100927.03;5083151;28;20028;-79
2022/09/26 00:31:06;;;;;;;0.10;0.10;;;;;;;15.52;62.92;100923.44;5085169;28;20487;-79
2022/09/26 00:33:32;;;;;;;0.00;0.00;;;;;;;15.53;62.93;100922.50;5077665;28;20491;-79
2022/09/26 00:35:58;;;;;;;0.20;0.20;;;;;;;15.48;62.99;100912.00;5089927;28;20032;-79
2022/09/26 00:38:25;;;;;;;0.10;0.10;;;;;;;15.50;63.01;100910.16;5088130;28;20499;-80
2022/09/26 00:40:51;;;;;;;0.10;0.10;;;;;;;15.48;62.63;100900.47;5084741;28;20036;-80
2022/09/26 00:43:39;;;;;;;0.10;0.10;;;;;;;15.57;62.84;100900.09;5084531;28;20032;-80
2022/09/26 00:49:04;;;;;;;0.10;0.10;;;;;;;15.49;62.82;100886.19;5103855;27;20412;-81
2022/09/26 00:51:33;;;;;;;0.00;0.00;;;;;;;15.47;62.97;100883.56;5085298;28;20027;-81
2022/09/26 00:54:01;;;;;;;0.10;0.10;;;;;;;15.46;62.95;100876.47;5088773;28;20040;-81
2022/09/26 00:56:32;;;;;;;0.10;0.10;;;;;;;15.50;62.74;100878.09;5089342;28;20055;-81
2022/09/26 00:59:28;;;;;;;0.10;0.10;;;;;;;15.48;62.75;100865.75;5090937;28;20036;-82
2022/09/26 01:01:57;;;;;;;0.10;0.10;;;;;;;15.44;62.81;100862.34;5092681;28;20039;-81
2022/09/26 01:04:26;;;;;;;0.00;0.00;;;;;;;15.44;62.59;100854.31;5093657;28;20112;-81
2022/09/26 01:06:55;;;;;;;3.70;2.15;;;;;;;15.44;63.08;100848.09;5091618;28;20111;-81
2022/09/26 01:09:22;;;;;;;0.13;0.13;;;;;;;15.45;62.92;100832.03;5090764;28;20107;-81
2022/09/26 01:11:48;;;;;;;0.10;0.10;;;;;;;15.37;63.12;100828.78;5092866;28;20132;-81
2022/09/26 01:14:15;;;;;;;0.00;0.00;;;;;;;15.39;62.82;100821.59;5092966;28;20428;-81
2022/09/26 01:16:49;;;;;;;0.08;0.08;;;;;;;15.43;62.55;100806.34;5090138;28;20040;-81
2022/09/26 01:19:28;;;;;;;0.10;0.10;;;;;;;15.46;62.93;100800.84;5092055;28;20409;-81
2022/09/26 01:22:18;;;;;;;0.10;0.10;;;;;;;15.48;62.85;100797.19;5089620;28;20525;-80
2022/09/26 01:30:26;;;;;;;0.10;0.10;;;;;;;15.37;62.64;100780.75;5107726;27;20351;-81
2022/09/26 01:33:32;;;;;;;0.00;0.00;;;;;;;15.40;62.23;100783.28;5104506;28;20039;-81
2022/09/26 01:36:38;;;;;;;0.00;0.00;;;;;;;15.43;62.13;100779.63;5113479;27;20035;-81
2022/09/26 01:42:07;;;;;;;0.10;0.10;;;;;;;15.36;62.34;100757.66;5090770;27;20363;-81
2022/09/26 01:44:38;;;;;;;;;;;;;;;15.46;62.57;100753.66;5073868;28;20052;-80
2022/09/26 01:50:20;;;;;;;0.15;0.15;;;;;;;15.24;63.29;100732.34;5070305;28;20367;-81
2022/09/26 01:52:55;;;;;;;0.10;0.10;;;;;;;15.16;63.27;100727.28;5036535;28;20037;-80
2022/09/26 01:55:30;;;;;;;0.10;0.10;;;;;;;15.06;63.15;100731.28;5039036;28;20580;-81
2022/09/26 02:00:38;;;;;;;0.25;0.25;;;;;;;15.03;63.26;100734.09;5060505;28;20387;-81
2022/09/26 02:03:10;;;;;;;0.25;0.25;;;;;;;15.00;63.23;100724.41;5046805;28;20037;-80
2022/09/26 02:05:43;;;;;;;0.10;0.10;;;;;;;14.95;63.34;100721.03;5046502;28;20508;-81
2022/09/26 02:08:16;;;;;;;0.10;0.10;;;;;;;14.92;63.50;100720.31;5047354;28;20060;-81
2022/09/26 02:10:48;;;;;;;0.20;0.20;;;;;;;14.92;63.13;100718.50;5053628;28;20035;-81
2022/09/26 02:13:19;;;;;;;0.20;0.20;;;;;;;14.92;63.38;100715.84;5042286;28;20052;-81
2022/09/26 02:15:51;;;;;;;0.57;0.57;;;;;;;14.88;63.43;100709.75;5041087;28;20524;-81
2022/09/26 02:18:40;;;;;;;0.20;0.20;;;;;;;14.91;63.23;100713.25;5052122;28;20493;-80
2022/09/26 02:21:14;;;;;;;0.08;0.08;;;;;;;14.87;63.38;100697.34;5048616;28;20049;-80
2022/09/26 02:23:40;;;;;;;0.10;0.10;;;;;;;14.85;62.96;100693.88;5042466;28;20459;-80
2022/09/26 02:26:07;;;;;;;0.10;0.10;;;;;;;14.85;63.25;100683.22;5046165;28;20040;-80
2022/09/26 02:28:33;;;;;;;0.13;0.13;;;;;;;14.85;63.21;100677.88;5042350;28;20029;-80
2022/09/26 02:31:01;;;;;;;0.00;0.00;;;;;;;14.85;63.24;100677.88;5041678;28;20029;-80
2022/09/26 02:33:28;;;;;;;0.10;0.10;;;;;;;14.87;63.34;100668.00;5039227;28;20030;-81
2022/09/26 02:35:55;;;;;;;0.10;0.10;;;;;;;14.85;63.29;100671.66;5047407;28;20112;-81
2022/09/26 02:38:25;;;;;;;0.10;0.10;;;;;;;14.87;62.77;100665.31;5040486;28;20083;-80
2022/09/26 02:41:02;;;;;;;0.10;0.10;;;;;;;14.85;62.88;100655.66;5042829;28;20029;-81
2022/09/26 02:49:10;;;;;;;0.10;0.10;;;;;;;14.79;61.23;100643.47;5103977;27;1205784;-83
2022/09/26 02:54:42;;;;;;;0.13;0.13;;;;;;;14.84;61.21;100624.56;5050363;28;20393;-81
2022/09/26 03:00:15;;;;;;;0.17;0.17;;;;;;;14.82;60.84;100613.13;5061774;28;20414;-80
2022/09/26 03:05:24;;;;;;;0.10;0.10;;;;;;;14.87;60.77;100603.97;5064499;28;20404;-83
2022/09/26 03:10:28;;;;;;;0.10;0.10;;;;;;;14.88;60.51;100603.06;5086023;27;20411;-80
2022/09/26 03:13:02;;;;;;;0.10;0.10;;;;;;;14.92;60.59;100592.28;5067517;28;20025;-80
2022/09/26 03:15:30;;;;;;;0.00;0.00;;;;;;;14.81;60.22;100580.22;5064111;28;20131;-80
2022/09/26 03:17:58;;;;;;;0.10;0.10;;;;;;;14.81;59.99;100576.72;5068505;28;20028;-80
2022/09/26 03:20:24;;;;;;;0.10;0.10;;;;;;;14.79;60.01;100571.44;5063103;28;20113;-81
2022/09/26 03:22:51;;;;;;;0.10;0.10;;;;;;;14.85;59.74;100557.84;5062897;28;20021;-80
2022/09/26 03:25:22;;;;;;;0.10;0.10;;;;;;;14.88;60.15;100555.03;5071247;28;20527;-80
2022/09/26 03:27:49;;;;;;;0.10;0.10;;;;;;;14.84;59.74;100547.22;5074842;28;20116;-80
2022/09/26 03:30:17;;;;;;;0.10;0.10;;;;;;;14.82;59.39;100551.78;5077323;28;20020;-81
2022/09/26 03:32:43;;;;;;;0.10;0.10;;;;;;;14.81;59.38;100542.88;5072792;28;20032;-79
2022/09/26 03:35:10;;;;;;;0.10;0.10;;;;;;;14.75;59.08;100548.47;5068721;28;20024;-80
2022/09/26 03:37:36;;;;;;;0.10;0.10;;;;;;;14.78;59.75;100543.03;5071397;28;20025;-81
2022/09/26 03:40:03;;;;;;;0.00;0.00;;;;;;;14.73;59.31;100531.69;5070035;28;20021;-80
2022/09/26 03:42:32;;;;;;;0.50;0.50;;;;;;;14.75;59.32;100529.81;5071121;28;20043;-80
2022/09/26 03:44:59;;;;;;;0.10;0.10;;;;;;;14.82;59.20;100517.97;5071336;28;20595;-80
2022/09/26 03:47:25;;;;;;;0.20;0.20;;;;;;;14.83;59.20;100509.03;5085312;28;20099;-80
2022/09/26 03:49:52;;;;;;;0.10;0.10;;;;;;;14.75;59.25;100500.47;5075105;28;20496;-80
2022/09/26 03:52:18;;;;;;;0.10;0.10;;;;;;;14.77;59.24;100501.28;5066763;28;20762;-80
2022/09/26 03:54:44;;;;;;;0.13;0.13;;;;;;;14.74;59.02;100498.75;5070965;28;20032;-80
2022/09/26 03:57:12;;;;;;;0.30;0.30;;;;;;;14.66;58.93;100484.88;5070570;28;20575;-80
2022/09/26 03:59:38;;;;;;;0.15;0.15;;;;;;;14.72;59.33;100480.16;5069632;28;20056;-81
2022/09/26 04:02:05;;;;;;;0.10;0.10;;;;;;;14.71;59.12;100475.75;5068157;28;20041;-80
2022/09/26 04:04:32;;;;;;;0.10;0.10;;;;;;;14.80;58.63;100478.97;5070509;28;20028;-81
2022/09/26 04:06:59;;;;;;;0.10;0.10;;;;;;;14.74;58.08;100460.56;5070146;28;20118;-80
2022/09/26 04:09:25;;;;;;;0.10;0.10;;;;;;;14.68;58.87;100457.22;5069483;28;20464;-81
2022/09/26 04:11:52;;;;;;;4.72;1.65;;;;;;;14.74;58.84;100456.06;5078366;28;20127;-80
2022/09/26 04:14:19;;;;;;;0.10;0.10;;;;;;;14.72;59.26;100444.63;5069533;28;20040;-81
2022/09/26 04:16:46;;;;;;;0.10;0.10;;;;;;;14.63;59.84;100431.66;5073854;28;20398;-81
2022/09/26 04:19:12;;;;;;;0.10;0.10;;;;;;;14.64;59.44;100439.59;5080508;28;20035;-81
2022/09/26 04:21:40;;;;;;;0.10;0.10;;;;;;;14.65;59.61;100429.81;5063910;28;20090;-80
2022/09/26 04:24:11;;;;;;;0.00;0.00;;;;;;;14.62;59.43;100427.28;5065843;28;20031;-81
2022/09/26 04:26:40;;;;;;;0.17;0.17;;;;;;;14.63;60.00;100415.66;5072648;28;20406;-81
2022/09/26 04:29:06;;;;;;;0.10;0.10;;;;;;;14.55;60.34;100408.88;5065145;28;20431;-81
2022/09/26 04:31:36;;;;;;;0.10;0.10;;;;;;;14.54;60.35;100409.81;5053982;28;20044;-81
2022/09/26 04:34:04;;;;;;;0.10;0.10;;;;;;;14.43;60.67;100400.53;5058086;28;20029;-81
2022/09/26 04:36:31;;;;;;;0.10;0.10;;;;;;;14.30;61.04;100400.19;5068084;28;20038;-81
2022/09/26 04:38:59;;;;;;;0.10;0.10;;;;;;;14.32;61.67;100393.88;5067912;28;20017;-81
2022/09/26 04:41:27;;;;;;;0.10;0.10;;;;;;;14.30;61.44;100374.41;5066448;28;20029;-81
2022/09/26 04:43:53;;;;;;;0.10;0.10;;;;;;;14.18;61.65;100383.81;5061975;28;20557;-80
2022/09/26 04:46:22;;;;;;;0.10;0.10;;;;;;;14.17;62.38;100383.88;5057555;28;20116;-81
2022/09/26 04:48:50;;;;;;;0.10;0.10;;;;;;;14.14;61.63;100381.31;5051585;28;20025;-81
2022/09/26 04:51:18;;;;;;;0.10;0.10;;;;;;;14.11;61.71;100377.00;5052311;28;20041;-81
2022/09/26 04:53:44;;;;;;;0.10;0.10;;;;;;;14.11;62.16;100366.34;5055401;28;20025;-81
2022/09/26 04:56:13;;;;;;;0.10;0.10;;;;;;;14.10;62.29;100358.41;5054531;28;20032;-81
2022/09/26 04:58:40;;;;;;;0.73;0.73;;;;;;;14.08;62.32;100355.78;5055320;28;20519;-81
2022/09/26 05:01:10;;;;;;;0.10;0.10;;;;;;;14.06;62.21;100347.03;5052795;28;20523;-81
2022/09/26 05:03:37;;;;;;;0.10;0.10;;;;;;;14.05;62.14;100350.63;5055974;28;20029;-81
2022/09/26 05:06:07;;;;;;;0.10;0.10;;;;;;;14.02;62.16;100343.63;5055020;28;20029;-81
2022/09/26 05:08:35;;;;;;;0.10;0.10;;;;;;;13.99;62.07;100343.72;5051953;28;20029;-81
2022/09/26 05:11:01;;;;;;;0.10;0.10;;;;;;;13.97;62.19;100332.31;5056088;28;20033;-81
2022/09/26 05:13:28;;;;;;;1.27;1.23;;;;;;;13.95;62.42;100327.97;5053426;28;20780;-81
2022/09/26 05:15:54;;;;;;;0.10;0.10;;;;;;;13.95;62.72;100325.31;5054284;28;20037;-81
2022/09/26 05:18:23;;;;;;;0.10;0.10;;;;;;;13.95;62.89;100317.31;5053659;28;20527;-81
2022/09/26 05:20:49;;;;;;;0.10;0.10;;;;;;;13.93;62.76;100313.84;5055844;28;20029;-81
2022/09/26 05:26:20;;;;;;;0.10;0.10;;;;;;;13.91;63.13;100305.94;5054553;28;20090;-81
2022/09/26 05:28:51;;;;;;;0.20;0.20;;;;;;;13.91;62.94;100304.13;5053965;28;20028;-81
2022/09/26 05:31:17;;;;;;;0.00;0.00;;;;;;;13.82;62.87;100288.53;5053993;28;20104;-80
2022/09/26 05:33:45;;;;;;;0.10;0.10;;;;;;;13.86;62.42;100297.28;5049959;28;20029;-81
2022/09/26 05:36:12;;;;;;;0.10;0.10;;;;;;;13.82;62.70;100282.34;5051621;28;20033;-81
2022/09/26 05:38:38;;;;;;;0.10;0.10;;;;;;;13.89;62.58;100287.34;5049308;28;20269;-81
2022/09/26 05:41:05;;;;;;;0.20;0.20;;;;;;;13.91;62.51;100281.97;5047001;28;20029;-81
2022/09/26 05:43:33;;;;;;;0.00;0.00;;;;;;;13.94;62.17;100273.81;5044655;28;20515;-81
2022/09/26 05:46:05;;;;;;;0.10;0.10;;;;;;;13.99;62.22;100265.63;5043501;28;20029;-81
2022/09/26 05:48:34;;;;;;;0.10;0.10;;;;;;;13.97;62.18;100259.50;5041319;28;20133;-80
2022/09/26 05:53:43;;;;;;;0.10;0.10;;;;;;;13.95;61.94;100248.94;5058113;28;20416;-81
2022/09/26 05:56:10;;;;;;;0.10;0.10;;;;;;;13.93;61.72;100245.44;5038963;28;20063;-81
2022/09/26 05:58:38;;;;;;;0.10;0.10;;;;;;;14.05;61.81;100244.91;5032277;28;20057;-81
2022/09/26 06:03:45;;;;;;;0.10;0.10;;;;;;;14.07;62.10;100228.88;5086844;27;1249520;-81
2022/09/26 06:06:13;;;;;;;0.10;0.10;;;;;;;14.06;61.67;100222.69;5129917;28;20126;-81
2022/09/26 06:08:40;;;;;;;0.20;0.20;;;;;;;14.07;61.83;100218.25;5125154;28;20035;-83
2022/09/26 06:11:11;;;;;;;0.10;0.10;;;;;;;14.09;61.47;100219.00;5126983;27;20027;-85
2022/09/26 06:13:39;;;;;;;0.10;0.10;;;;;;;14.13;61.46;100204.66;5118800;28;20031;-81
2022/09/26 06:16:09;;;;;;;0.30;0.30;;;;;;;14.11;61.45;100209.16;5128594;27;20106;-80
2022/09/26 06:18:37;;;;;;;0.10;0.10;;;;;;;14.11;61.66;100200.31;5127674;27;20040;-79
2022/09/26 06:21:04;;;;;;;0.20;0.20;;;;;;;14.13;61.34;100194.00;5125260;27;20023;-81
2022/09/26 06:23:33;;;;;;;0.10;0.10;;;;;;;14.23;61.36;100184.63;5128173;27;20043;-81
2022/09/26 06:25:59;;;;;;;0.10;0.10;;;;;;;14.20;61.29;100192.75;5129060;27;20426;-83
2022/09/26 06:28:27;;;;;;;0.10;0.10;;;;;;;14.18;61.47;100181.31;5128823;27;20517;-82
2022/09/26 06:30:54;;;;;;;0.10;0.10;;;;;;;14.26;61.64;100180.09;5118801;27;20038;-83
2022/09/26 06:33:20;;;;;;;0.10;0.10;;;;;;;14.22;61.39;100174.91;5124914;28;20050;-82
2022/09/26 06:35:47;;;;;;;0.30;0.30;;;;;;;14.30;61.24;100173.69;5118975;27;20549;-82
2022/09/26 06:38:13;;;;;;;0.10;0.10;;;;;;;14.33;61.31;100154.88;5124955;28;20035;-81
2022/09/26 06:40:39;;;;;;;0.10;0.10;;;;;;;14.39;61.60;100150.16;5124328;28;20046;-83
2022/09/26 06:43:05;;;;;;;0.13;0.13;;;;;;;14.39;61.39;100136.81;5119389;28;20031;-84
2022/09/26 06:45:31;;;;;;;0.00;0.00;;;;;;;14.26;61.12;100135.66;5116740;28;20607;-82
2022/09/26 06:48:01;;;;;;;0.10;0.10;;;;;;;14.43;61.09;100137.53;5119380;28;20035;-82
2022/09/26 06:50:27;;;;;;;0.22;0.22;;;;;;;14.45;61.39;100119.66;5119669;27;20032;-82
2022/09/26 06:52:53;;;;;;;0.10;0.10;;;;;;;14.44;61.39;100128.59;5119832;28;20031;-82
2022/09/26 06:55:21;;;;;;;0.10;0.10;;;;;;;14.40;61.50;100114.56;5119916;28;20048;-82
2022/09/26 06:57:47;;;;;;;0.10;0.10;;;;;;;14.40;61.41;100111.03;5115160;28;20023;-80
2022/09/26 07:00:15;;;;;;;0.10;0.10;;;;;;;14.45;61.14;100111.66;5119581;28;20031;-82
2022/09/26 07:02:50;;;;;;;0.10;0.10;;;;;;;14.52;61.63;100099.78;5125845;27;20118;-83
2022/09/26 07:05:17;;;;;;;0.00;0.00;;;;;;;14.47;61.34;100084.97;5118399;27;20073;-82
2022/09/26 07:07:45;;;;;;;0.10;0.10;;;;;;;14.52;61.53;100089.13;5121974;28;20493;-83
2022/09/26 07:10:12;;;;;;;0.15;0.15;;;;;;;14.56;61.83;100090.69;5115710;28;20500;-83
2022/09/26 07:12:42;;;;;;;0.00;0.00;;;;;;;14.61;61.26;100081.63;5117196;28;20133;-81
2022/09/26 07:15:12;;;;;;;0.00;0.00;;;;;;;14.68;61.41;100075.09;5111549;27;20528;-83
2022/09/26 07:17:39;;;;;;;1.55;1.02;;;;;;;14.65;61.48;100080.56;5100753;28;20032;-82
2022/09/26 07:20:09;;;;;;;5.45;0.50;;;;;;;14.71;61.17;100082.91;5097050;28;20761;-82
2022/09/26 07:22:35;;;;;;;0.10;0.10;;;;;;;14.76;61.28;100083.53;5115590;28;20173;-82
2022/09/26 07:25:02;;;;;;;0.10;0.10;;;;;;;14.77;61.34;100074.63;5115379;28;20023;-84
2022/09/26 07:27:28;;;;;;;0.32;0.32;;;;;;;14.79;61.38;100075.41;5111013;28;20019;-80
2022/09/26 07:29:55;;;;;;;0.10;0.10;;;;;;;14.78;61.31;100071.00;5115539;28;20020;-81
2022/09/26 07:32:21;;;;;;;0.40;0.40;;;;;;;14.87;61.41;100075.88;5102799;28;20034;-83
2022/09/26 07:34:48;;;;;;;0.00;0.00;;;;;;;14.94;61.29;100063.09;5107210;28;20035;-83
2022/09/26 07:37:16;;;;;;;0.32;0.32;;;;;;;15.00;61.00;100067.25;5111204;28;20114;-83
2022/09/26 07:39:42;;;;;;;0.10;0.10;;;;;;;15.10;60.83;100056.97;5111234;28;20027;-82
2022/09/26 07:42:08;;;;;;;0.10;0.10;;;;;;;15.17;60.63;100051.22;5103559;28;20029;-81
2022/09/26 07:44:35;;;;;;;0.10;0.10;;;;;;;15.17;61.05;100047.72;5110910;28;20046;-82
2022/09/26 07:50:19;;;;;;;0.90;0.90;;;;;;;15.23;61.10;100043.84;5106510;28;20038;-79
2022/09/26 07:52:34;;;;;;;0.10;0.10;;;;;;;15.19;60.65;100040.50;5118327;28;20027;-83
2022/09/26 07:55:00;;;;;;;0.13;0.13;;;;;;;15.23;60.71;100046.50;5115436;28;20032;-84
2022/09/26 07:57:28;;;;;;;0.00;0.00;;;;;;;15.12;60.71;100026.59;5110993;28;20027;-83
2022/09/26 07:59:54;;;;;;;0.10;0.10;;;;;;;15.07;61.10;100031.31;5097237;28;20024;-79
2022/09/26 08:02:23;;;;;;;0.17;0.17;;;;;;;15.03;60.73;100032.44;5112501;28;20116;-82
2022/09/26 08:04:52;;;;;;;2.90;0.75;;;;;;;14.99;61.03;100022.84;5112701;28;20036;-81
2022/09/26 08:07:20;;;;;;;0.10;0.10;;;;;;;15.03;61.33;100019.94;5106666;28;20032;-81
2022/09/26 08:09:46;;;;;;;0.10;0.10;;;;;;;15.00;61.19;100013.91;5114783;28;20095;-82
2022/09/26 08:12:13;;;;;;;0.10;0.10;;;;;;;15.05;61.37;100009.19;5115637;28;20107;-81
2022/09/26 08:14:39;;;;;;;0.10;0.10;;;;;;;14.99;61.72;100013.03;5100084;28;20098;-82
2022/09/26 08:17:05;;;;;;;0.08;0.08;;;;;;;15.01;61.87;100010.28;5117121;28;20019;-81
2022/09/26 08:19:32;;;;;;;0.08;0.08;;;;;;;14.98;62.60;100015.81;5103250;28;20028;-80
2022/09/26 08:21:58;;;;;;;0.03;0.03;;;;;;;14.99;63.76;100022.84;5109783;28;20056;-82
2022/09/26 08:24:24;;;;;;;0.10;0.10;;;;;;;14.91;63.24;100014.38;5111370;28;20080;-81
2022/09/26 08:26:52;;;;;;;0.17;0.17;;;;;;;14.83;64.37;100020.97;5111388;28;20111;-81
2022/09/26 08:29:18;;;;;;;0.10;0.10;;;;;;;14.85;65.02;100005.75;5114002;28;20504;-82
2022/09/26 08:31:48;;;;;;;0.17;0.17;;;;;;;14.76;65.72;100008.88;5109471;28;20132;-81
2022/09/26 08:34:14;;;;;;;0.10;0.10;;;;;;;14.73;65.00;99995.72;5108186;28;20031;-80
2022/09/26 08:36:40;;;;;;;0.00;0.00;;;;;;;14.66;65.71;99995.16;5107189;28;20043;-81
2022/09/26 08:39:06;;;;;;;0.10;0.10;;;;;;;14.67;66.37;99980.03;5103991;28;20102;-81
2022/09/26 08:47:39;;;;;;;0.10;0.10;;;;;;;14.82;66.24;99975.72;5071860;27;20138;-82
2022/09/26 08:50:19;;;;;;;1.45;1.45;;;;;;;14.76;66.45;99974.22;5062784;28;20037;-81
2022/09/26 08:55:36;;;;;;;0.00;0.00;;;;;;;14.88;67.04;99976.25;5079645;27;1187266;-80
2022/09/26 08:58:09;;;;;;;0.10;0.10;;;;;;;14.88;66.82;99952.25;5078233;28;20409;-81
2022/09/26 09:00:37;;;;;;;0.10;0.10;;;;;;;14.99;67.18;99942.81;5090547;28;20105;-81
2022/09/26 09:06:06;;;;;;;0.17;0.17;;;;;;;15.06;67.35;99946.88;5105622;27;20723;-82
2022/09/26 09:08:40;;;;;;;0.10;0.10;;;;;;;15.27;66.69;99944.03;5091198;28;20364;-83
2022/09/26 09:11:32;;;;;;;0.00;0.00;;;;;;;15.32;67.32;99939.28;5077772;28;20041;-84
2022/09/26 09:14:26;;;;;;;0.10;0.10;;;;;;;15.36;66.44;99940.84;5060869;28;20024;-83
2022/09/26 09:23:01;;;;;;;0.10;0.10;;;;;;;15.32;66.24;99916.13;5061340;28;20769;-83
2022/09/26 09:31:10;;;;;;;0.07;0.07;;;;;;;15.34;67.95;99916.06;5097617;27;1189611;-83
2022/09/26 09:33:42;;;;;;;0.08;0.08;;;;;;;15.45;66.78;99911.00;5100363;28;20518;-83
2022/09/26 09:36:13;;;;;;;0.10;0.10;;;;;;;15.44;67.06;99909.25;5097023;28;20032;-84
2022/09/26 09:38:45;;;;;;;0.20;0.20;;;;;;;15.43;66.44;99920.88;5101133;28;20103;-83
2022/09/26 09:41:15;;;;;;;0.10;0.10;;;;;;;15.52;66.75;99909.69;5103239;28;20110;-83
2022/09/26 09:43:47;;;;;;;0.15;0.15;;;;;;;15.50;66.51;99905.38;5101903;28;20060;-83
2022/09/26 09:48:58;;;;;;;0.10;0.10;;;;;;;15.30;67.48;99911.81;5078275;27;20176;-79
2022/09/26 09:51:51;;;;;;;0.63;0.63;;;;;;;15.26;67.66;99912.94;5067794;28;20066;-79
2022/09/26 10:02:39;;;;;;;0.10;0.10;;;;;;;15.14;68.30;99899.31;4983470;27;4212948;-78
2022/09/26 10:07:46;;;;;;;2.05;1.95;;;;;;;15.07;68.24;99903.25;5108380;27;20118;-83
2022/09/26 10:10:19;;;;;;;5.68;1.75;;;;;;;15.05;68.93;99902.47;5090842;28;20029;-80
2022/09/26 10:12:50;;;;;;;0.70;0.70;;;;;;;15.07;68.70;99886.41;5072080;28;20036;-80
2022/09/26 10:15:20;;;;;;;0.30;0.30;;;;;;;15.02;69.04;99890.16;5079224;28;20083;-80
2022/09/26 10:20:41;;;;;;;0.00;0.00;;;;;;;14.90;69.04;99885.47;5042262;27;20794;-79
2022/09/26 10:23:18;;;;;;;0.30;0.30;;;;;;;14.80;69.84;99884.25;5041323;27;20060;-80
2022/09/26 10:25:48;;;;;;;0.10;0.10;;;;;;;14.87;69.58;99891.84;5033756;27;20080;-80
2022/09/26 10:28:27;;;;;;;0.10;0.10;;;;;;;14.96;69.94;99877.16;5032910;27;20491;-79
2022/09/26 10:31:00;;;;;;;0.10;0.10;;;;;;;14.89;69.80;99883.75;5023047;28;20021;-78
2022/09/26 10:33:28;;;;;;;;;;;;;;;15.07;69.60;99884.59;5024884;28;20131;-79
2022/09/26 10:36:03;;;;;;;0.00;0.00;;;;;;;14.94;70.30;99875.50;5017497;28;19986;-79
2022/09/26 10:38:29;;;;;;;0.20;0.20;;;;;;;14.88;69.87;99874.91;5031319;28;20140;-80
2022/09/26 10:41:00;;;;;;;0.38;0.38;;;;;;;14.97;69.94;99875.38;5021843;28;20046;-80
2022/09/26 10:46:10;;;;;;;0.10;0.10;;;;;;;14.96;70.04;99868.31;5093468;27;20372;-79
2022/09/26 10:49:01;;;;;;;0.20;0.20;;;;;;;14.97;70.44;99870.03;5084342;28;20038;-79
2022/09/26 10:51:36;;;;;;;0.22;0.22;;;;;;;14.92;70.68;99867.59;5090954;28;20060;-79
2022/09/26 10:56:44;;;;;;;0.40;0.40;;;;;;;14.96;70.74;99870.97;5067947;28;20942;-79
2022/09/26 10:59:13;;;;;;;0.10;0.10;;;;;;;14.93;70.95;99879.13;5051033;28;20040;-80
2022/09/26 11:01:44;;;;;;;0.10;0.10;;;;;;;14.96;70.75;99871.81;5058361;28;20500;-79
2022/09/26 11:05:55;;;;;;;0.10;0.10;;;;;;;14.99;70.87;99869.00;5054655;28;20075;-80
2022/09/26 11:07:04;;;;;;;0.10;0.10;;;;;;;15.05;70.43;99865.13;5055358;28;20045;-79
2022/09/26 11:09:31;;;;;;;0.10;0.10;;;;;;;15.00;70.51;99860.06;5049418;28;20067;-80
2022/09/26 11:11:57;;;;;;;0.20;0.20;;;;;;;14.97;70.28;99854.88;5050905;28;20029;-80
2022/09/26 11:14:27;;;;;;;0.85;0.85;;;;;;;15.01;70.72;99860.91;5049475;28;20035;-80
2022/09/26 11:16:55;;;;;;;0.10;0.10;;;;;;;14.96;70.77;99858.47;5050658;28;20132;-79
2022/09/26 11:22:13;;;;;;;0.10;0.10;;;;;;;15.07;71.35;99859.72;5093234;27;20490;-79
2022/09/26 11:25:06;;;;;;;0.10;0.10;;;;;;;15.14;71.24;99853.97;5090749;28;20028;-80
2022/09/26 11:27:45;;;;;;;0.10;0.10;;;;;;;15.16;71.08;99854.72;5093061;28;20039;-80
2022/09/26 11:30:18;;;;;;;0.10;0.10;;;;;;;15.23;71.04;99849.94;5086719;28;20028;-80
2022/09/26 11:32:48;;;;;;;0.10;0.10;;;;;;;15.17;70.98;99861.78;5084953;28;20135;-80
2022/09/26 11:35:44;;;;;;;0.10;0.10;;;;;;;15.23;71.39;99854.38;5088886;28;20039;-79
2022/09/26 11:41:35;;;;;;;0.10;0.10;;;;;;;15.18;70.96;99850.19;5070064;27;20412;-75
2022/09/26 11:49:41;;;;;;;0.10;0.10;;;;;;;15.25;71.46;99834.66;5064603;28;20773;-76
2022/09/26 11:55:02;;;;;;;0.20;0.20;;;;;;;15.34;71.30;99830.66;5092991;27;20393;-79
2022/09/26 12:00:49;;;;;;;0.10;0.10;;;;;;;15.37;71.26;99830.47;5080195;27;20399;-82
2022/09/26 12:06:24;;;;;;;0.10;0.10;;;;;;;15.40;71.08;99830.28;5105990;27;20395;-77
2022/09/26 12:18:00;;;;;;;0.10;0.10;;;;;;;15.36;71.40;99812.72;5081599;27;20410;-79
2022/09/26 12:20:36;;;;;;;0.20;0.20;;;;;;;15.38;71.73;99821.53;5060504;28;20044;-79
2022/09/26 12:42:44;;;;;;;0.10;0.10;;;;;;;15.58;71.67;99806.19;5077338;27;20393;-77
2022/09/26 12:48:20;;;;;;;0.10;0.10;;;;;;;15.60;71.89;99788.25;5066384;28;20357;-79
2022/09/26 12:51:19;;;;;;;0.10;0.10;;;;;;;15.66;72.08;99782.56;5059906;28;20040;-78
2022/09/26 12:54:14;;;;;;;0.10;0.10;;;;;;;15.75;72.09;99771.34;5036895;28;20056;-79
2022/09/26 12:57:15;;;;;;;0.20;0.20;;;;;;;15.93;71.95;99765.91;5040826;28;20021;-79
2022/09/26 13:00:09;;;;;;;0.10;0.10;;;;;;;16.07;72.15;99767.75;5042244;28;20119;-79
2022/09/26 13:05:49;;;;;;;0.03;0.03;;;;;;;16.30;71.62;99753.00;5095534;27;20379;-78
2022/09/26 13:08:27;;;;;;;0.25;0.25;;;;;;;16.32;71.93;99749.28;5084991;28;20043;-79
2022/09/26 13:14:08;;;;;;;0.10;0.10;;;;;;;16.68;71.75;99755.06;5094090;27;20397;-80
2022/09/26 13:19:39;;;;;;;0.00;0.00;;;;;;;16.88;71.35;99755.63;5054447;28;20892;-78
2022/09/26 13:24:55;;;;;;;0.00;0.00;;;;;;;17.10;71.25;99753.31;5047809;28;20382;-79
2022/09/26 13:27:26;;;;;;;0.00;0.00;;;;;;;17.19;70.91;99741.16;5045227;28;20112;-79
2022/09/26 13:30:01;;;;;;;0.10;0.10;;;;;;;17.29;70.68;99734.22;5044669;28;20021;-77
2022/09/26 13:32:37;;;;;;;0.10;0.10;;;;;;;17.32;69.76;99732.31;5045322;28;20386;-78
2022/09/26 13:35:24;;;;;;;0.10;0.10;;;;;;;17.39;69.36;99733.66;5039594;28;20104;-77
2022/09/26 13:40:59;;;;;;;0.00;0.00;;;;;;;17.38;69.34;99734.59;5070470;27;20364;-78
2022/09/26 13:49:42;;;;;;;1.65;0.85;;;;;;;17.96;68.65;99708.41;5058520;28;20799;-78
2022/09/26 13:52:51;;;;;;;0.03;0.03;;;;;;;18.02;67.56;99710.66;5050431;28;20041;-78
2022/09/26 13:55:20;;;;;;;0.00;0.00;;;;;;;17.89;66.97;99709.75;5050475;28;20021;-78
2022/09/26 14:05:50;;;;;;;0.10;0.10;;;;;;;17.58;67.12;99711.84;5076810;28;20333;-78
2022/09/26 14:11:10;;;;;;;0.10;0.10;;;;;;;17.31;67.34;99715.41;5088149;27;20918;-78
2022/09/26 14:13:37;;;;;;;0.10;0.10;;;;;;;17.12;67.69;99730.00;5091114;28;20119;-78
2022/09/26 14:16:25;;;;;;;0.10;0.10;;;;;;;16.91;68.07;99742.03;5081672;28;20028;-78
2022/09/26 14:22:01;;;;;;;0.10;0.10;;;;;;;16.58;68.33;99737.91;5057132;28;20389;-78
2022/09/26 14:30:06;;;;;;;0.10;0.10;;;;;;;16.18;67.96;99723.38;5102106;27;20344;-79
2022/09/26 14:32:38;;;;;;;0.10;0.10;;;;;;;16.22;68.05;99725.88;5102744;28;20438;-80
2022/09/26 14:35:24;;;;;;;;;;;;;;;16.34;68.15;99714.41;5095235;28;20024;-79
2022/09/26 14:37:58;;;;;;;0.10;0.10;;;;;;;16.25;69.09;99710.50;5093762;28;19913;-80
2022/09/26 14:40:32;;;;;;;0.10;0.10;;;;;;;16.27;68.86;99707.72;5094716;28;20043;-80
2022/09/26 14:43:17;;;;;;;0.10;0.10;;;;;;;16.24;69.16;99708.78;5092546;28;20515;-80
2022/09/26 14:45:50;;;;;;;0.10;0.10;;;;;;;16.22;68.75;99705.34;5096855;28;20490;-81
2022/09/26 14:48:38;;;;;;;0.10;0.10;;;;;;;16.32;68.65;99705.63;5094949;28;20024;-84
2022/09/26 15:02:14;;;;;;;0.08;0.08;;;;;;;16.42;68.74;99698.75;5056721;27;20396;-77